createdAt,value
2023-04-18T00:00:10.850Z,97048.13
2023-04-18T00:02:38.844Z,97040.66
2023-04-18T00:05:09.030Z,97055.31
2023-04-18T00:07:36.053Z,97056.44
2023-04-18T00:10:04.063Z,97061.06
2023-04-18T00:12:31.934Z,97057.59
2023-04-18T00:14:58.935Z,97050.09
2023-04-18T00:17:28.731Z,97052.53
2023-04-18T00:19:56.449Z,97049.84
2023-04-18T00:22:23.549Z,97056.88
2023-04-18T00:24:51.246Z,97052.88
2023-04-18T00:27:21.898Z,97059.94
2023-04-18T00:29:49.187Z,97055.88
2023-04-18T00:32:16.410Z,97054.28
2023-04-18T00:34:43.049Z,97058.59
2023-04-18T00:37:09.753Z,97056.19
2023-04-18T00:39:36.819Z,97054.56
2023-04-18T00:42:04.163Z,97053.19
2023-04-18T00:44:31.710Z,97059.41
2023-04-18T00:46:59.146Z,97056.19
2023-04-18T00:49:26.999Z,97045.69
2023-04-18T00:51:55.036Z,97055.38
2023-04-18T00:54:22.093Z,97048.13
2023-04-18T00:56:49.010Z,97050.28
2023-04-18T00:59:15.954Z,97051.63
2023-04-18T01:01:43.660Z,97048.13
2023-04-18T01:04:10.465Z,97042.22
2023-04-18T01:06:37.367Z,97043.81
2023-04-18T01:09:05.651Z,97044.13
2023-04-18T01:11:32.445Z,97035.78
2023-04-18T01:14:04.468Z,97030.63
2023-04-18T01:16:37.218Z,97040.66
2023-04-18T01:19:06.606Z,97052.50
2023-04-18T01:21:37.611Z,97048.50
2023-04-18T01:24:09.212Z,97046.63
2023-04-18T01:26:35.952Z,97049.38
2023-04-18T01:29:02.628Z,97049.91
2023-04-18T01:31:29.556Z,97052.91
2023-04-18T01:33:56.268Z,97052.09
2023-04-18T01:36:22.855Z,97046.44
2023-04-18T01:38:49.731Z,97045.94
2023-04-18T01:41:16.357Z,97044.56
2023-04-18T01:43:43.221Z,97041.91
2023-04-18T01:46:09.945Z,97050.25
2023-04-18T01:48:36.718Z,97055.38
2023-04-18T01:51:03.508Z,97051.06
2023-04-18T01:53:30.930Z,97047.31
2023-04-18T01:55:58.524Z,97039.53
2023-04-18T01:58:25.473Z,97055.94
2023-04-18T02:00:53.321Z,97055.41
2023-04-18T02:03:20.610Z,97061.34
2023-04-18T02:05:47.364Z,97061.88
2023-04-18T02:08:14.490Z,97064.84
2023-04-18T02:10:41.801Z,97060.78
2023-04-18T02:13:08.802Z,97060.50
2023-04-18T02:15:35.733Z,97068.81
2023-04-18T02:18:03.124Z,97061.25
2023-04-18T02:20:33.843Z,97066.88
2023-04-18T02:23:01.397Z,97066.31
2023-04-18T02:25:29.165Z,97064.97
2023-04-18T02:27:57.382Z,97064.69
2023-04-18T02:30:25.327Z,97062.50
2023-04-18T02:32:53.384Z,97069.72
2023-04-18T02:35:23.612Z,97061.59
2023-04-18T02:37:50.487Z,97063.72
2023-04-18T02:40:17.261Z,97058.84
2023-04-18T02:42:43.892Z,97067.41
2023-04-18T02:45:11.101Z,97067.41
2023-04-18T02:47:51.282Z,97057.66
2023-04-18T02:50:21.022Z,97061.94
2023-04-18T02:52:47.982Z,97063.78
2023-04-18T02:55:14.722Z,97059.97
2023-04-18T02:57:41.586Z,97061.28
2023-04-18T03:00:09.110Z,97060.41
2023-04-18T03:02:36.183Z,97063.31
2023-04-18T03:05:03.317Z,97053.03
2023-04-18T03:07:31.095Z,97049.75
2023-04-18T03:09:57.963Z,97058.34
2023-04-18T03:12:24.681Z,97051.31
2023-04-18T03:14:51.445Z,97054.75
2023-04-18T03:17:18.619Z,97059.03
2023-04-18T03:19:46.510Z,97057.59
2023-04-18T03:22:14.316Z,97064.84
2023-04-18T03:24:41.168Z,97058.06
2023-04-18T03:27:07.961Z,97059.94
2023-04-18T03:29:34.723Z,97048.59
2023-04-18T03:32:01.517Z,97065.00
2023-04-18T03:34:28.701Z,97068.75
2023-04-18T03:36:55.308Z,97062.00
2023-04-18T03:39:22.320Z,97065.47
2023-04-18T03:41:49.854Z,97062.47
2023-04-18T03:44:16.723Z,97059.16
2023-04-18T03:46:43.615Z,97063.69
2023-04-18T03:49:10.407Z,97068.22
2023-04-18T03:51:44.245Z,97073.28
2023-04-18T03:54:10.906Z,97045.19
2023-04-18T03:56:37.724Z,97068.19
2023-04-18T03:59:04.451Z,97065.19
2023-04-18T04:01:31.438Z,97076.78
2023-04-18T04:03:58.305Z,97073.88
2023-04-18T04:06:25.234Z,97070.59
2023-04-18T04:08:51.848Z,97080.59
2023-04-18T04:11:18.630Z,97080.34
2023-04-18T04:13:45.429Z,97088.44
2023-04-18T04:16:12.570Z,97081.53
2023-04-18T04:18:39.416Z,97089.03
2023-04-18T04:21:06.931Z,97085.63
2023-04-18T04:23:34.470Z,97089.66
2023-04-18T04:26:04.596Z,97096.13
2023-04-18T04:28:31.678Z,97101.25
2023-04-18T04:30:58.689Z,97094.31
2023-04-18T04:33:28.683Z,97101.06
2023-04-18T04:35:56.558Z,97102.16
2023-04-18T04:38:23.519Z,97096.00
2023-04-18T04:40:50.993Z,97102.47
2023-04-18T04:43:20.521Z,97105.38
2023-04-18T04:45:52.788Z,97112.72
2023-04-18T04:48:21.952Z,97105.69
2023-04-18T04:50:53.587Z,97109.28
2023-04-18T04:53:20.248Z,97106.09
2023-04-18T04:55:47.300Z,97100.22
2023-04-18T04:58:14.034Z,97111.06
2023-04-18T05:00:40.955Z,97109.47
2023-04-18T05:03:08.470Z,97115.94
2023-04-18T05:05:35.519Z,97111.22
2023-04-18T05:08:02.822Z,97109.34
2023-04-18T05:10:30.777Z,97116.19
2023-04-18T05:12:57.511Z,97116.19
2023-04-18T05:15:24.947Z,97113.81
2023-04-18T05:17:51.823Z,97115.72
2023-04-18T05:20:18.571Z,97118.22
2023-04-18T05:22:45.337Z,97125.00
2023-04-18T05:25:12.781Z,97130.41
2023-04-18T05:27:39.733Z,97127.25
2023-04-18T05:30:07.086Z,97123.78
2023-04-18T05:32:34.498Z,97119.50
2023-04-18T05:35:01.327Z,97126.03
2023-04-18T05:37:27.985Z,97126.59
2023-04-18T05:39:54.884Z,97130.13
2023-04-18T05:42:21.879Z,97126.94
2023-04-18T05:44:48.537Z,97128.03
2023-04-18T05:47:15.769Z,97129.69
2023-04-18T05:49:42.493Z,97120.56
2023-04-18T05:52:09.234Z,97124.59
2023-04-18T05:54:36.406Z,97115.19
2023-04-18T05:57:04.550Z,97119.78
2023-04-18T05:59:31.556Z,97121.13
2023-04-18T06:01:58.403Z,97114.13
2023-04-18T06:04:25.405Z,97121.94
2023-04-18T06:06:52.252Z,97129.22
2023-04-18T06:09:19.680Z,97136.25
2023-04-18T06:11:46.479Z,97131.13
2023-04-18T06:14:13.507Z,97104.16
2023-04-18T06:16:40.950Z,97128.63
2023-04-18T06:19:07.675Z,97131.31
2023-04-18T06:21:34.266Z,97122.91
2023-04-18T06:24:01.670Z,97115.34
2023-04-18T06:26:28.408Z,97129.81
2023-04-18T06:28:55.279Z,97129.50
2023-04-18T06:31:22.277Z,97110.09
2023-04-18T06:33:49.128Z,97118.06
2023-04-18T06:36:15.841Z,97123.91
2023-04-18T06:38:42.828Z,97109.03
2023-04-18T06:41:09.821Z,97119.69
2023-04-18T06:43:36.534Z,97121.75
2023-04-18T06:46:07.070Z,97121.91
2023-04-18T06:48:34.083Z,97120.16
2023-04-18T06:51:00.839Z,97123.81
2023-04-18T06:53:27.625Z,97110.13
2023-04-18T06:55:54.252Z,97121.88
2023-04-18T06:58:20.870Z,97121.41
2023-04-18T07:00:51.946Z,97122.84
2023-04-18T07:05:45.668Z,97128.69
2023-04-18T07:08:12.458Z,97113.84
2023-04-18T07:10:39.065Z,97125.97
2023-04-18T07:13:05.742Z,97127.88
2023-04-18T07:15:34.798Z,97122.53
2023-04-18T07:18:01.504Z,97119.88
2023-04-18T07:20:28.352Z,97115.56
2023-04-18T07:22:55.523Z,97125.06
2023-04-18T07:25:22.585Z,97123.78
2023-04-18T07:27:50.259Z,97126.53
2023-04-18T07:30:17.263Z,97124.88
2023-04-18T07:32:43.893Z,97125.31
2023-04-18T07:35:11.056Z,97123.59
2023-04-18T07:37:37.890Z,97128.94
2023-04-18T07:40:05.384Z,97125.31
2023-04-18T07:42:31.974Z,97123.81
2023-04-18T07:44:59.096Z,97123.19
2023-04-18T07:47:29.833Z,97124.13
2023-04-18T07:49:57.643Z,97133.88
2023-04-18T07:52:24.496Z,97132.16
2023-04-18T07:54:51.548Z,97134.75
2023-04-18T07:57:18.208Z,97136.66
2023-04-18T07:59:44.921Z,97133.75
2023-04-18T08:02:11.730Z,97137.19
2023-04-18T08:04:38.650Z,97134.16
2023-04-18T08:07:05.707Z,97140.53
2023-04-18T08:09:32.366Z,97139.81
2023-04-18T08:11:59.383Z,97130.56
2023-04-18T08:14:26.330Z,97136.09
2023-04-18T08:16:53.134Z,97123.41
2023-04-18T08:19:20.008Z,97127.50
2023-04-18T08:21:46.818Z,97131.13
2023-04-18T08:24:13.702Z,97112.50
2023-04-18T08:26:40.619Z,97127.66
2023-04-18T08:29:07.595Z,97125.41
2023-04-18T08:31:34.345Z,97116.03
2023-04-18T08:34:02.139Z,97127.78
2023-04-18T08:36:31.592Z,97125.75
2023-04-18T08:38:58.251Z,97129.22
2023-04-18T08:41:26.050Z,97139.34
2023-04-18T08:43:54.266Z,97129.16
2023-04-18T08:46:23.083Z,97131.91
2023-04-18T08:48:51.451Z,97126.53
2023-04-18T08:51:18.745Z,97112.75
2023-04-18T08:53:45.933Z,97124.00
2023-04-18T08:56:14.765Z,97115.97
2023-04-18T08:58:46.330Z,97116.00
2023-04-18T09:01:13.756Z,97120.03
2023-04-18T09:03:43.256Z,97125.22
2023-04-18T09:06:19.262Z,97126.03
2023-04-18T09:09:00.261Z,97126.03
2023-04-18T09:11:29.638Z,97126.66
2023-04-18T09:14:10.905Z,97115.63
2023-04-18T09:16:50.766Z,97112.31
2023-04-18T09:19:21.752Z,97110.38
2023-04-18T09:21:58.345Z,97119.03
2023-04-18T09:24:27.255Z,97112.31
2023-04-18T09:26:56.055Z,97115.66
2023-04-18T09:29:48.138Z,97109.78
2023-04-18T09:32:29.594Z,97111.38
2023-04-18T09:35:03.932Z,97106.75
2023-04-18T09:37:31.457Z,97104.06
2023-04-18T09:39:58.163Z,97103.72
2023-04-18T09:42:27.424Z,97100.72
2023-04-18T09:45:02.035Z,97112.94
2023-04-18T09:47:29.183Z,97113.09
2023-04-18T09:49:56.055Z,97107.66
2023-04-18T09:52:27.323Z,97104.91
2023-04-18T09:54:59.594Z,97104.06
2023-04-18T09:57:31.430Z,97112.88
2023-04-18T10:00:02.484Z,97099.25
2023-04-18T10:02:35.532Z,97087.53
2023-04-18T10:05:05.900Z,97096.06
2023-04-18T10:07:33.113Z,97099.91
2023-04-18T10:09:59.938Z,97097.50
2023-04-18T10:12:26.902Z,97085.03
2023-04-18T10:14:54.580Z,97103.16
2023-04-18T10:17:21.734Z,97093.41
2023-04-18T10:20:04.041Z,97089.25
2023-04-18T10:22:30.855Z,97102.72
2023-04-18T10:24:59.386Z,97100.94
2023-04-18T10:27:48.275Z,97098.22
2023-04-18T10:30:16.258Z,97089.94
2023-04-18T10:32:42.995Z,97098.09
2023-04-18T10:35:11.273Z,97099.53
2023-04-18T10:37:50.904Z,97100.31
2023-04-18T10:40:31.834Z,97100.63
2023-04-18T10:42:59.030Z,97096.94
2023-04-18T10:45:28.900Z,97096.13
2023-04-18T10:48:22.873Z,97090.84
2023-04-18T10:51:13.282Z,97088.28
2023-04-18T10:53:49.158Z,97091.63
2023-04-18T10:56:16.761Z,97089.06
2023-04-18T10:58:52.362Z,97086.97
2023-04-18T11:01:32.640Z,97088.56
2023-04-18T11:04:00.271Z,97090.16
2023-04-18T11:06:27.872Z,97077.50
2023-04-18T11:09:12.282Z,97093.53
2023-04-18T11:11:39.025Z,97089.88
2023-04-18T11:14:05.711Z,97094.19
2023-04-18T11:16:34.313Z,97079.09
2023-04-18T11:19:01.073Z,97095.00
2023-04-18T11:21:30.470Z,97087.94
2023-04-18T11:23:58.411Z,97086.81
2023-04-18T11:26:29.091Z,97081.19
2023-04-18T11:28:59.254Z,97076.72
2023-04-18T11:31:26.025Z,97070.47
2023-04-18T11:33:56.216Z,97073.03
2023-04-18T11:36:22.997Z,97077.38
2023-04-18T11:38:50.187Z,97083.16
2023-04-18T11:41:16.927Z,97060.69
2023-04-18T11:43:45.600Z,97061.31
2023-04-18T11:46:13.504Z,97067.22
2023-04-18T11:48:45.487Z,97066.44
2023-04-18T11:51:31.595Z,97064.03
2023-04-18T11:53:58.293Z,97059.03
2023-04-18T11:56:24.976Z,97049.91
2023-04-18T11:58:51.811Z,97057.63
2023-04-18T12:01:27.467Z,97050.69
2023-04-18T12:04:21.078Z,97053.25
2023-04-18T12:06:53.768Z,97054.69
2023-04-18T12:09:28.006Z,97040.72
2023-04-18T12:12:02.895Z,97051.78
2023-04-18T12:14:30.553Z,97048.75
2023-04-18T12:16:57.274Z,97050.84
2023-04-18T12:19:28.323Z,97036.56
2023-04-18T12:22:06.742Z,97035.94
2023-04-18T12:24:33.864Z,97050.06
2023-04-18T12:27:00.608Z,97039.34
2023-04-18T12:29:27.938Z,97050.06
2023-04-18T12:31:54.808Z,97040.00
2023-04-18T12:34:21.541Z,97040.78
2023-04-18T12:36:48.385Z,97033.91
2023-04-18T12:39:15.123Z,97025.56
2023-04-18T12:41:41.871Z,97040.50
2023-04-18T12:44:09.480Z,97031.97
2023-04-18T12:46:36.158Z,97038.75
2023-04-18T12:49:02.982Z,97036.66
2023-04-18T12:51:29.638Z,97037.97
2023-04-18T12:53:56.480Z,97031.66
2023-04-18T12:56:23.456Z,97026.38
2023-04-18T12:58:50.737Z,97030.22
2023-04-18T13:01:18.152Z,97027.19
2023-04-18T13:03:48.682Z,97023.81
2023-04-18T13:06:20.466Z,97029.75
2023-04-18T13:08:47.528Z,97027.50
2023-04-18T13:11:14.150Z,97030.41
2023-04-18T13:13:40.805Z,97032.66
2023-04-18T13:16:07.765Z,97031.03
2023-04-18T13:18:34.891Z,97021.28
2023-04-18T13:21:01.888Z,97018.38
2023-04-18T13:23:28.583Z,97022.88
2023-04-18T13:25:55.359Z,97024.00
2023-04-18T13:28:22.170Z,97022.22
2023-04-18T13:30:48.821Z,97007.78
2023-04-18T13:33:17.055Z,97024.00
2023-04-18T13:35:44.013Z,97026.38
2023-04-18T13:38:11.262Z,97009.41
2023-04-18T13:40:38.851Z,97013.09
2023-04-18T13:43:05.632Z,97018.53
2023-04-18T13:45:32.304Z,97019.50
2023-04-18T13:47:59.201Z,97023.34
2023-04-18T13:50:26.237Z,97020.78
2023-04-18T13:52:54.711Z,97017.72
2023-04-18T13:55:21.812Z,97014.03
2023-04-18T13:57:48.490Z,97004.72
2023-04-18T14:00:17.193Z,97021.72
2023-04-18T14:02:44.757Z,96976.63
2023-04-18T14:05:11.792Z,97021.56
2023-04-18T14:07:38.615Z,97019.50
2023-04-18T14:10:05.960Z,97009.50
2023-04-18T14:12:32.687Z,97022.03
2023-04-18T14:14:59.390Z,97011.78
2023-04-18T14:17:25.968Z,96999.09
2023-04-18T14:19:52.723Z,97021.28
2023-04-18T14:22:19.390Z,97016.91
2023-04-18T14:24:46.232Z,97007.63
2023-04-18T14:27:12.855Z,97020.75
2023-04-18T14:29:39.498Z,97024.31
2023-04-18T14:32:07.021Z,97014.50
2023-04-18T14:34:35.325Z,97015.00
2023-04-18T14:37:03.800Z,97017.56
2023-04-18T14:39:30.996Z,97021.72
2023-04-18T14:41:58.094Z,97017.72
2023-04-18T14:44:24.769Z,97019.81
2023-04-18T14:46:51.614Z,97017.88
2023-04-18T14:49:18.290Z,97019.31
2023-04-18T14:51:44.961Z,97003.59
2023-04-18T14:54:11.714Z,97016.91
2023-04-18T14:56:38.400Z,97024.94
2023-04-18T14:59:05.044Z,97024.44
2023-04-18T15:01:31.748Z,97021.25
2023-04-18T15:03:59.598Z,97027.34
2023-04-18T15:06:27.303Z,97020.91
2023-04-18T15:08:54.209Z,97023.16
2023-04-18T15:11:20.896Z,97022.00
2023-04-18T15:13:47.647Z,97023.78
2023-04-18T15:16:14.513Z,97028.09
2023-04-18T15:18:41.636Z,97026.00
2023-04-18T15:21:08.320Z,97015.09
2023-04-18T15:23:35.184Z,97024.72
2023-04-18T15:26:09.407Z,97018.91
2023-04-18T15:28:35.894Z,97022.59
2023-04-18T17:38:21.069Z,97045.34
2023-04-18T17:40:47.700Z,97046.06
2023-04-18T17:43:14.322Z,97039.03
2023-04-18T17:45:41.729Z,97056.75
2023-04-18T17:48:08.463Z,97052.50
2023-04-18T17:50:37.071Z,97040.47
2023-04-18T17:53:03.918Z,97055.94
2023-04-18T17:55:30.809Z,97047.22
2023-04-18T17:57:57.579Z,97060.88
2023-04-18T18:00:24.309Z,97060.00
2023-04-18T18:02:51.087Z,97053.97
2023-04-18T18:05:17.731Z,97062.03
2023-04-18T18:07:47.626Z,97058.72
2023-04-18T18:10:22.524Z,97061.91
2023-04-18T18:12:49.463Z,97055.91
2023-04-18T18:15:16.106Z,97057.00
2023-04-18T18:17:45.467Z,97068.34
2023-04-18T18:20:12.562Z,97058.63
2023-04-18T18:22:39.454Z,97052.69
2023-04-18T18:25:06.652Z,97051.88
2023-04-18T18:27:33.510Z,97056.81
2023-04-18T18:30:00.196Z,97050.66
2023-04-18T18:32:27.065Z,97057.72
2023-04-18T18:34:53.835Z,97065.22
2023-04-18T18:37:23.192Z,97063.63
2023-04-18T18:39:49.954Z,97055.28
2023-04-18T18:42:16.785Z,97053.25
2023-04-18T18:44:43.447Z,97051.34
2023-04-18T18:47:10.022Z,97045.50
2023-04-18T18:49:36.822Z,97054.66
2023-04-18T18:52:05.487Z,97053.38
2023-04-18T18:54:32.327Z,97065.31
2023-04-18T18:57:00.130Z,97047.00
2023-04-18T18:59:26.748Z,97055.66
2023-04-18T19:01:53.501Z,97050.03
2023-04-18T19:04:20.574Z,97040.38
2023-04-18T19:06:47.501Z,97055.47
2023-04-18T19:09:14.358Z,97049.41
2023-04-18T19:11:41.302Z,97055.94
2023-04-18T19:14:08.533Z,97058.38
2023-04-18T19:16:36.137Z,97050.25
2023-04-18T19:19:02.949Z,97044.50
2023-04-18T19:21:29.970Z,97046.69
2023-04-18T19:23:56.620Z,97036.16
2023-04-18T19:26:23.430Z,97043.97
2023-04-18T19:28:50.163Z,97041.16
2023-04-18T19:31:16.808Z,97043.59
2023-04-18T19:33:43.735Z,97043.19
2023-04-18T19:36:10.348Z,97042.56
2023-04-18T19:38:36.958Z,97050.19
2023-04-18T19:41:03.592Z,97048.59
2023-04-18T19:43:30.335Z,97058.63
2023-04-18T19:45:57.122Z,97049.78
2023-04-18T19:48:23.995Z,97046.25
2023-04-18T19:50:51.185Z,97050.56
2023-04-18T19:53:19.065Z,97046.06
2023-04-18T19:55:46.145Z,97042.31
2023-04-18T19:58:33.677Z,97040.78
2023-04-18T20:01:00.886Z,97043.28
2023-04-18T20:03:27.861Z,97045.47
2023-04-18T20:05:54.771Z,97037.63
2023-04-18T20:08:21.693Z,97024.22
2023-04-18T20:10:48.332Z,97045.25
2023-04-18T20:13:14.906Z,97039.41
2023-04-18T20:15:42.518Z,97033.16
2023-04-18T20:18:09.214Z,97054.66
2023-04-18T20:20:35.937Z,97034.94
2023-04-18T20:23:03.505Z,97037.22
2023-04-18T20:25:30.361Z,97042.84
2023-04-18T20:27:57.036Z,97046.72
2023-04-18T20:30:24.445Z,97038.38
2023-04-18T20:32:51.363Z,97036.56
2023-04-18T20:35:19.890Z,97047.13
2023-04-18T20:37:46.788Z,97031.72
2023-04-18T20:40:13.438Z,97035.53
2023-04-18T20:42:40.086Z,97036.13
2023-04-18T20:45:10.968Z,97024.78
2023-04-18T20:47:39.014Z,97007.34
2023-04-18T20:50:06.589Z,97029.69
2023-04-18T20:52:33.407Z,97030.00
2023-04-18T20:55:00.299Z,97026.53
2023-04-18T20:57:26.998Z,97032.47
2023-04-18T20:59:53.942Z,97024.19
2023-04-18T21:02:20.821Z,97026.63
2023-04-18T21:04:47.598Z,97021.56
2023-04-18T21:07:14.574Z,97015.16
2023-04-18T21:09:41.191Z,97024.63
2023-04-18T21:12:07.862Z,97014.94
2023-04-18T21:14:34.538Z,97022.78
2023-04-18T21:17:01.777Z,97024.97
2023-04-18T21:19:28.432Z,97024.47
2023-04-18T21:21:55.166Z,97014.00
2023-04-18T21:24:21.792Z,97015.59
2023-04-18T21:26:48.480Z,97016.72
2023-04-18T21:29:15.199Z,97005.97
2023-04-18T21:31:41.809Z,97010.53
2023-04-18T21:34:09.286Z,97009.25
2023-04-18T21:36:36.203Z,97006.00
2023-04-18T21:39:04.095Z,97017.41
2023-04-18T21:41:30.844Z,97014.19
2023-04-18T21:43:57.550Z,97009.94
2023-04-18T21:46:25.428Z,97015.66
2023-04-18T21:48:52.146Z,96998.19
2023-04-18T21:51:18.886Z,97009.22
2023-04-18T21:53:45.468Z,96997.13
2023-04-18T21:56:12.148Z,97006.03
2023-04-18T21:58:39.170Z,97013.63
2023-04-18T22:01:05.887Z,97007.72
2023-04-18T22:03:34.098Z,96994.75
2023-04-18T22:06:01.654Z,97002.09
2023-04-18T22:08:29.534Z,97001.53
2023-04-18T22:10:59.024Z,97004.25
2023-04-18T22:13:30.336Z,96994.00
2023-04-18T22:15:58.360Z,96997.81
2023-04-18T22:18:25.416Z,97002.69
2023-04-18T22:20:53.803Z,96986.31
2023-04-18T22:23:20.701Z,96990.38
2023-04-18T22:25:47.552Z,96988.78
2023-04-18T22:28:14.266Z,96989.06
2023-04-18T22:30:40.909Z,96979.06
2023-04-18T22:33:07.621Z,96982.34
2023-04-18T22:35:34.479Z,96968.63
2023-04-18T22:38:01.284Z,96977.53
2023-04-18T22:40:27.899Z,96968.94
2023-04-18T22:42:54.817Z,96977.28
2023-04-18T22:45:21.626Z,96973.31
2023-04-18T22:47:48.331Z,96975.72
2023-04-18T22:50:15.502Z,96973.81
2023-04-18T22:52:42.120Z,96979.22
2023-04-18T22:55:09.448Z,96967.44
2023-04-18T22:57:36.377Z,96968.50
2023-04-18T23:00:05.113Z,96958.56
2023-04-18T23:02:32.005Z,96963.41
2023-04-18T23:05:02.645Z,96952.94
2023-04-18T23:07:29.314Z,96956.72
2023-04-18T23:09:56.090Z,96960.53
2023-04-18T23:12:23.042Z,96962.69
2023-04-18T23:14:49.735Z,96951.38
2023-04-18T23:17:16.374Z,96948.97
2023-04-18T23:19:45.229Z,96939.00
2023-04-18T23:22:11.958Z,96930.97
2023-04-18T23:24:38.968Z,96940.06
2023-04-18T23:27:06.092Z,96928.19
2023-04-18T23:29:37.104Z,96931.41
2023-04-18T23:32:04.001Z,96932.00
2023-04-18T23:34:31.225Z,96931.41
2023-04-18T23:36:58.071Z,96928.19
2023-04-18T23:39:26.048Z,96927.97
2023-04-18T23:41:52.790Z,96925.59
2023-04-18T23:44:19.454Z,96924.00
2023-04-18T23:46:47.059Z,96925.59
2023-04-18T23:49:14.379Z,96917.56
2023-04-18T23:51:40.923Z,96912.41
2023-04-18T23:54:07.679Z,96920.50
2023-04-18T23:56:35.183Z,96918.84
2023-04-18T23:59:01.904Z,96925.09
